createdAt,value
2022-09-23T00:00:17.283Z,4.13
2022-09-23T00:01:16.785Z,4.13
2022-09-23T00:02:17.029Z,4.12
2022-09-23T00:03:16.581Z,4.09
2022-09-23T00:04:17.087Z,3.99
2022-09-23T00:05:16.569Z,3.99
2022-09-23T00:06:17.071Z,3.95
2022-09-23T00:07:16.498Z,3.99
2022-09-23T00:08:16.963Z,3.96
2022-09-23T00:09:16.379Z,3.92
2022-09-23T00:10:16.794Z,3.90
2022-09-23T00:11:17.221Z,3.89
2022-09-23T00:12:16.837Z,3.88
2022-09-23T00:13:17.256Z,3.88
2022-09-23T00:14:16.721Z,3.90
2022-09-23T00:15:17.224Z,3.93
2022-09-23T00:16:16.774Z,3.88
2022-09-23T00:17:16.311Z,3.85
2022-09-23T00:18:16.783Z,3.85
2022-09-23T00:19:17.273Z,3.82
2022-09-23T00:20:16.753Z,3.79
2022-09-23T00:21:17.207Z,3.82
2022-09-23T00:22:16.555Z,3.82
2022-09-23T00:23:16.987Z,3.60
2022-09-23T00:24:16.403Z,3.54
2022-09-23T00:25:16.830Z,3.55
2022-09-23T00:26:17.283Z,3.55
2022-09-23T00:27:16.709Z,3.55
2022-09-23T00:28:17.168Z,3.47
2022-09-23T00:29:16.640Z,3.49
2022-09-23T00:30:17.119Z,3.43
2022-09-23T00:31:16.629Z,3.50
2022-09-23T00:32:16.978Z,3.49
2022-09-23T00:33:16.426Z,3.49
2022-09-23T00:34:16.897Z,3.47
2022-09-23T00:35:16.367Z,3.47
2022-09-23T00:36:16.838Z,3.44
2022-09-23T00:37:17.283Z,3.44
2022-09-23T00:38:16.751Z,3.46
2022-09-23T00:39:17.167Z,3.37
2022-09-23T00:40:16.651Z,3.36
2022-09-23T00:41:17.253Z,3.31
2022-09-23T00:42:16.584Z,3.23
2022-09-23T00:43:17.035Z,3.17
2022-09-23T00:44:16.493Z,3.16
2022-09-23T00:45:16.956Z,3.19
2022-09-23T00:46:16.464Z,3.19
2022-09-23T00:47:17.164Z,3.22
2022-09-23T00:48:16.609Z,3.30
2022-09-23T00:49:17.058Z,3.27
2022-09-23T00:50:16.536Z,3.26
2022-09-23T00:51:16.984Z,3.26
2022-09-23T00:52:16.732Z,3.31
2022-09-23T00:53:17.171Z,3.34
2022-09-23T00:54:16.639Z,3.39
2022-09-23T00:55:17.067Z,3.33
2022-09-23T00:56:16.503Z,3.36
2022-09-23T00:57:16.922Z,3.36
2022-09-23T00:58:16.367Z,3.37
2022-09-23T00:59:16.817Z,3.31
2022-09-23T01:00:17.292Z,3.26
2022-09-23T01:01:16.821Z,3.26
2022-09-23T01:02:17.079Z,3.33
2022-09-23T01:03:16.687Z,3.30
2022-09-23T01:04:17.164Z,3.28
2022-09-23T01:05:16.639Z,3.30
2022-09-23T01:06:17.101Z,3.30
2022-09-23T01:07:16.529Z,3.30
2022-09-23T01:08:16.953Z,3.27
2022-09-23T01:09:16.366Z,3.10
2022-09-23T01:10:17.020Z,3.02
2022-09-23T01:11:16.524Z,3.04
2022-09-23T01:12:17.140Z,3.09
2022-09-23T01:13:16.571Z,3.02
2022-09-23T01:14:17.007Z,2.98
2022-09-23T01:15:16.503Z,3.00
2022-09-23T01:16:16.994Z,3.02
2022-09-23T01:17:16.563Z,3.00
2022-09-23T01:18:17.032Z,2.96
2022-09-23T01:19:16.507Z,2.92
2022-09-23T01:20:16.946Z,2.89
2022-09-23T01:21:16.397Z,2.88
2022-09-23T01:22:16.416Z,2.86
2022-09-23T01:23:16.834Z,2.88
2022-09-23T01:24:17.275Z,2.88
2022-09-23T01:25:16.726Z,2.92
2022-09-23T01:26:17.143Z,2.93
2022-09-23T01:27:16.612Z,2.93
2022-09-23T01:28:17.074Z,2.92
2022-09-23T01:29:16.523Z,2.96
2022-09-23T01:30:16.973Z,2.93
2022-09-23T01:31:16.443Z,2.93
2022-09-23T01:32:16.838Z,2.91
2022-09-23T01:33:17.283Z,2.93
2022-09-23T01:34:16.749Z,2.92
2022-09-23T01:35:17.246Z,2.91
2022-09-23T01:36:16.668Z,2.91
2022-09-23T01:37:17.097Z,2.88
2022-09-23T01:38:16.564Z,2.88
2022-09-23T01:39:17.024Z,2.89
2022-09-23T01:40:16.544Z,2.86
2022-09-23T01:41:17.100Z,2.79
2022-09-23T01:42:16.357Z,2.76
2022-09-23T01:43:16.820Z,2.75
2022-09-23T01:44:17.268Z,2.78
2022-09-23T01:45:16.728Z,2.75
2022-09-23T01:46:17.168Z,2.75
2022-09-23T01:47:16.616Z,2.76
2022-09-23T01:48:17.102Z,2.76
2022-09-23T01:49:16.611Z,2.79
2022-09-23T01:50:17.051Z,2.76
2022-09-23T01:51:16.507Z,2.75
2022-09-23T01:52:16.414Z,2.76
2022-09-23T01:53:16.864Z,2.78
2022-09-23T01:54:16.349Z,2.76
2022-09-23T01:55:16.793Z,2.72
2022-09-23T01:56:17.230Z,2.78
2022-09-23T01:57:16.694Z,2.74
2022-09-23T01:58:17.155Z,2.78
2022-09-23T01:59:16.636Z,2.78
2022-09-23T02:00:17.093Z,2.78
2022-09-23T02:01:16.656Z,2.75
2022-09-23T02:02:17.256Z,2.79
2022-09-23T02:03:16.833Z,2.81
2022-09-23T02:04:17.276Z,2.81
2022-09-23T02:05:16.725Z,2.85
2022-09-23T02:06:17.148Z,2.84
2022-09-23T02:07:16.608Z,2.89
2022-09-23T02:08:17.028Z,2.88
2022-09-23T02:09:16.452Z,2.89
2022-09-23T02:10:16.888Z,2.93
2022-09-23T02:11:16.342Z,2.91
2022-09-23T02:12:16.797Z,2.92
2022-09-23T02:13:17.267Z,2.93
2022-09-23T02:14:16.715Z,2.98
2022-09-23T02:15:17.229Z,2.96
2022-09-23T02:16:16.745Z,2.93
2022-09-23T02:17:17.287Z,2.88
2022-09-23T02:18:16.728Z,2.88
2022-09-23T02:19:17.146Z,2.88
2022-09-23T02:20:16.577Z,2.92
2022-09-23T02:21:17.044Z,2.95
2022-09-23T02:22:16.299Z,3.00
2022-09-23T02:23:16.727Z,2.98
2022-09-23T02:24:17.148Z,3.03
2022-09-23T02:25:16.587Z,2.99
2022-09-23T02:26:17.036Z,2.99
2022-09-23T02:27:16.537Z,3.03
2022-09-23T02:28:17.017Z,3.03
2022-09-23T02:29:16.482Z,2.92
2022-09-23T02:30:17.003Z,2.95
2022-09-23T02:31:16.573Z,2.92
2022-09-23T02:32:16.424Z,2.89
2022-09-23T02:33:16.841Z,2.86
2022-09-23T02:34:17.287Z,2.86
2022-09-23T02:35:16.739Z,2.85
2022-09-23T02:36:17.173Z,2.78
2022-09-23T02:37:16.603Z,2.79
2022-09-23T02:38:17.060Z,2.79
2022-09-23T02:39:16.485Z,2.85
2022-09-23T02:40:16.991Z,2.84
2022-09-23T02:41:16.626Z,2.78
2022-09-23T02:42:16.881Z,2.74
2022-09-23T02:43:16.353Z,2.68
2022-09-23T02:44:16.796Z,2.67
2022-09-23T02:45:17.262Z,2.68
2022-09-23T02:46:16.758Z,2.71
2022-09-23T02:47:16.287Z,2.65
2022-09-23T02:48:16.707Z,2.67
2022-09-23T02:49:16.796Z,2.65
2022-09-23T02:50:17.230Z,2.60
2022-09-23T02:51:16.720Z,2.58
2022-09-23T02:52:17.105Z,2.51
2022-09-23T02:53:16.551Z,2.45
2022-09-23T02:54:17.001Z,2.48
2022-09-23T02:55:16.463Z,2.43
2022-09-23T02:56:16.936Z,2.48
2022-09-23T02:57:16.407Z,2.44
2022-09-23T02:58:16.876Z,2.41
2022-09-23T02:59:16.327Z,2.41
2022-09-23T03:00:16.819Z,2.38
2022-09-23T03:01:17.360Z,2.41
2022-09-23T03:02:16.835Z,2.40
2022-09-23T03:03:16.380Z,2.40
2022-09-23T03:04:16.825Z,2.38
2022-09-23T03:05:17.274Z,2.38
2022-09-23T03:06:16.689Z,2.38
2022-09-23T03:07:17.151Z,2.41
2022-09-23T03:08:16.580Z,2.45
2022-09-23T03:09:17.004Z,2.37
2022-09-23T03:10:16.468Z,2.43
2022-09-23T03:11:16.967Z,2.34
2022-09-23T03:12:16.579Z,2.34
2022-09-23T03:13:17.040Z,2.33
2022-09-23T03:14:16.497Z,2.36
2022-09-23T03:15:16.952Z,2.37
2022-09-23T03:16:16.468Z,2.34
2022-09-23T03:17:17.029Z,2.33
2022-09-23T03:18:16.445Z,2.33
2022-09-23T03:19:16.878Z,2.33
2022-09-23T03:20:16.322Z,2.32
2022-09-23T03:21:16.757Z,2.33
2022-09-23T03:22:16.594Z,2.34
2022-09-23T03:23:17.019Z,2.41
2022-09-23T03:24:16.479Z,2.36
2022-09-23T03:25:16.948Z,2.36
2022-09-23T03:26:16.411Z,2.34
2022-09-23T03:27:16.868Z,2.33
2022-09-23T03:28:16.350Z,2.30
2022-09-23T03:29:16.817Z,2.32
2022-09-23T03:30:17.306Z,2.30
2022-09-23T03:31:16.832Z,2.33
2022-09-23T03:32:17.030Z,2.34
2022-09-23T03:33:16.487Z,2.37
2022-09-23T03:34:16.979Z,2.32
2022-09-23T03:35:16.406Z,2.30
2022-09-23T03:36:16.860Z,2.30
2022-09-23T03:37:16.287Z,2.29
2022-09-23T03:38:16.764Z,2.32
2022-09-23T03:39:17.245Z,2.23
2022-09-23T03:40:16.759Z,2.26
2022-09-23T03:41:16.320Z,2.26
2022-09-23T03:42:17.014Z,2.29
2022-09-23T03:43:16.542Z,2.26
2022-09-23T03:44:17.014Z,2.29
2022-09-23T03:45:16.478Z,2.26
2022-09-23T03:46:16.959Z,2.26
2022-09-23T03:47:16.559Z,2.24
2022-09-23T03:48:17.006Z,2.30
2022-09-23T03:49:16.428Z,2.29
2022-09-23T03:50:16.896Z,2.26
2022-09-23T03:51:16.328Z,2.24
2022-09-23T03:52:17.283Z,2.17
2022-09-23T03:53:16.721Z,2.20
2022-09-23T03:54:17.187Z,2.21
2022-09-23T03:55:16.631Z,2.23
2022-09-23T03:56:17.087Z,2.26
2022-09-23T03:57:16.546Z,2.21
2022-09-23T03:58:17.004Z,2.21
2022-09-23T03:59:16.450Z,2.23
2022-09-23T04:00:16.946Z,2.24
2022-09-23T04:01:16.485Z,2.21
2022-09-23T04:02:17.123Z,2.20
2022-09-23T04:03:16.648Z,2.21
2022-09-23T04:04:17.062Z,2.17
2022-09-23T04:05:16.508Z,2.13
2022-09-23T04:06:16.934Z,2.06
2022-09-23T04:07:16.400Z,2.07
2022-09-23T04:08:16.840Z,1.99
2022-09-23T04:09:16.322Z,1.98
2022-09-23T04:10:16.790Z,1.99
2022-09-23T04:11:17.247Z,2.00
2022-09-23T04:12:16.872Z,2.00
2022-09-23T04:13:16.343Z,1.96
2022-09-23T04:14:16.799Z,1.96
2022-09-23T04:15:17.301Z,1.96
2022-09-23T04:16:16.766Z,1.89
2022-09-23T04:17:16.277Z,1.89
2022-09-23T04:18:16.695Z,1.88
2022-09-23T04:19:17.151Z,1.88
2022-09-23T04:20:16.576Z,1.89
2022-09-23T04:21:17.018Z,1.90
2022-09-23T04:22:16.554Z,1.88
2022-09-23T04:23:16.987Z,1.88
2022-09-23T04:24:16.478Z,1.82
2022-09-23T04:25:16.990Z,1.78
2022-09-23T04:26:16.493Z,1.68
2022-09-23T04:27:16.953Z,1.75
2022-09-23T04:28:16.400Z,1.67
2022-09-23T04:29:16.845Z,1.61
2022-09-23T04:30:17.329Z,1.55
2022-09-23T04:31:16.866Z,1.53
2022-09-23T04:32:16.795Z,1.54
2022-09-23T04:33:17.232Z,1.54
2022-09-23T04:34:16.686Z,1.55
2022-09-23T04:35:17.116Z,1.48
2022-09-23T04:36:16.535Z,1.48
2022-09-23T04:37:16.983Z,1.44
2022-09-23T04:38:16.442Z,1.46
2022-09-23T04:39:16.921Z,1.46
2022-09-23T04:40:16.428Z,1.44
2022-09-23T04:41:16.977Z,1.41
2022-09-23T04:42:17.204Z,1.44
2022-09-23T04:43:16.664Z,1.46
2022-09-23T04:44:17.111Z,1.48
2022-09-23T04:45:16.556Z,1.51
2022-09-23T04:46:17.045Z,1.48
2022-09-23T04:47:16.611Z,1.48
2022-09-23T04:48:17.084Z,1.44
2022-09-23T04:49:16.522Z,1.44
2022-09-23T04:50:16.969Z,1.39
2022-09-23T04:51:16.420Z,1.34
2022-09-23T04:52:16.527Z,1.36
2022-09-23T04:53:17.026Z,1.43
2022-09-23T04:54:16.526Z,1.46
2022-09-23T04:55:16.998Z,1.53
2022-09-23T04:56:16.452Z,1.54
2022-09-23T04:57:16.939Z,1.47
2022-09-23T04:58:16.401Z,1.43
2022-09-23T04:59:16.851Z,1.41
2022-09-23T05:00:16.301Z,1.46
2022-09-23T05:01:16.824Z,1.47
2022-09-23T05:02:16.409Z,1.46
2022-09-23T05:03:16.953Z,1.48
2022-09-23T05:04:16.378Z,1.46
2022-09-23T05:05:16.821Z,1.51
2022-09-23T05:06:17.283Z,1.29
2022-09-23T05:07:16.720Z,1.24
2022-09-23T05:08:17.175Z,1.26
2022-09-23T05:09:16.635Z,1.30
2022-09-23T05:10:17.091Z,1.39
2022-09-23T05:11:16.558Z,1.36
2022-09-23T05:12:16.416Z,1.37
2022-09-23T05:13:16.867Z,1.37
2022-09-23T05:14:16.293Z,1.33
2022-09-23T05:15:16.710Z,1.36
2022-09-23T05:16:16.444Z,1.31
2022-09-23T05:17:17.050Z,1.24
2022-09-23T05:18:20.238Z,1.24
2022-09-23T05:19:16.384Z,1.27
2022-09-23T05:20:16.838Z,1.30
2022-09-23T05:21:17.312Z,1.36
2022-09-23T05:22:16.712Z,1.34
2022-09-23T05:23:17.160Z,1.36
2022-09-23T05:24:16.618Z,1.40
2022-09-23T05:25:17.082Z,1.39
2022-09-23T05:26:16.560Z,1.44
2022-09-23T05:27:17.031Z,1.44
2022-09-23T05:28:16.478Z,1.39
2022-09-23T05:29:16.895Z,1.44
2022-09-23T05:30:16.337Z,1.40
2022-09-23T05:31:19.881Z,1.37
2022-09-23T05:32:16.584Z,1.44
2022-09-23T05:33:16.999Z,1.46
2022-09-23T05:34:16.419Z,1.48
2022-09-23T05:35:16.845Z,1.51
2022-09-23T05:36:16.321Z,1.54
2022-09-23T05:37:16.795Z,1.57
2022-09-23T05:38:17.249Z,1.62
2022-09-23T05:39:16.718Z,1.57
2022-09-23T05:40:17.425Z,1.60
2022-09-23T05:41:17.003Z,1.68
2022-09-23T05:42:16.737Z,1.75
2022-09-23T05:43:17.175Z,1.75
2022-09-23T05:44:16.627Z,1.79
2022-09-23T05:45:17.039Z,1.83
2022-09-23T05:46:16.574Z,1.86
2022-09-23T05:47:17.115Z,1.88
2022-09-23T05:48:16.573Z,1.92
2022-09-23T05:49:17.009Z,1.96
2022-09-23T05:50:16.497Z,1.99
2022-09-23T05:51:16.970Z,2.05
2022-09-23T05:52:16.464Z,2.06
2022-09-23T05:53:16.964Z,2.14
2022-09-23T05:54:16.444Z,2.12
2022-09-23T05:55:16.931Z,2.10
2022-09-23T05:56:16.394Z,2.13
2022-09-23T05:57:16.831Z,2.19
2022-09-23T05:58:17.264Z,2.21
2022-09-23T05:59:16.690Z,2.23
2022-09-23T06:00:17.181Z,2.24
2022-09-23T06:01:16.615Z,2.30
2022-09-23T06:02:16.756Z,2.34
2022-09-23T06:03:17.278Z,2.34
2022-09-23T06:04:16.825Z,2.40
2022-09-23T06:05:17.268Z,2.43
2022-09-23T06:06:16.724Z,2.48
2022-09-23T06:07:17.197Z,2.55
2022-09-23T06:08:16.647Z,2.60
2022-09-23T06:09:17.142Z,2.60
2022-09-23T06:10:16.572Z,2.65
2022-09-23T06:11:17.019Z,2.71
2022-09-23T06:12:16.644Z,2.74
2022-09-23T06:13:17.102Z,2.88
2022-09-23T06:14:16.530Z,2.88
2022-09-23T06:15:16.947Z,2.98
2022-09-23T06:16:16.546Z,2.99
2022-09-23T06:17:17.238Z,3.00
2022-09-23T06:18:17.199Z,3.04
2022-09-23T06:19:16.659Z,3.04
2022-09-23T06:20:17.103Z,3.13
2022-09-23T06:21:16.590Z,3.07
2022-09-23T06:22:16.303Z,3.09
2022-09-23T06:23:16.760Z,3.16
2022-09-23T06:24:19.852Z,3.17
2022-09-23T06:25:17.100Z,3.23
2022-09-23T06:26:16.569Z,3.26
2022-09-23T06:27:16.994Z,3.27
2022-09-23T06:28:16.416Z,3.34
2022-09-23T06:29:16.835Z,3.36
2022-09-23T06:30:17.271Z,3.43
2022-09-23T06:31:16.756Z,3.46
2022-09-23T06:32:16.756Z,3.49
2022-09-23T06:33:23.024Z,3.55
2022-09-23T06:34:16.675Z,3.67
2022-09-23T06:35:25.873Z,3.68
2022-09-23T06:36:30.792Z,3.78
2022-09-23T06:37:19.510Z,3.81
2022-09-23T06:38:17.289Z,3.82
2022-09-23T06:39:16.772Z,3.99
2022-09-23T06:40:17.390Z,4.00
2022-09-23T06:41:16.917Z,4.08
2022-09-23T06:42:16.552Z,4.13
2022-09-23T06:43:17.019Z,4.20
2022-09-23T06:44:16.444Z,4.24
2022-09-23T06:45:16.867Z,4.31
2022-09-23T06:46:16.379Z,4.40
2022-09-23T06:47:16.995Z,4.50
2022-09-23T06:48:16.452Z,4.44
2022-09-23T06:49:16.939Z,4.47
2022-09-23T06:50:16.386Z,4.55
2022-09-23T06:51:16.865Z,4.60
2022-09-23T06:52:17.255Z,4.61
2022-09-23T06:53:16.688Z,4.67
2022-09-23T06:54:17.139Z,4.69
2022-09-23T06:55:16.557Z,4.75
2022-09-23T06:56:17.001Z,4.81
2022-09-23T06:57:16.444Z,4.92
2022-09-23T06:58:16.865Z,4.93
2022-09-23T06:59:16.299Z,4.95
2022-09-23T07:00:16.730Z,5.05
2022-09-23T07:01:17.242Z,5.22
2022-09-23T07:02:17.086Z,5.28
2022-09-23T07:03:16.717Z,5.34
2022-09-23T07:04:17.172Z,5.34
2022-09-23T07:05:16.641Z,5.44
2022-09-23T07:06:17.153Z,5.48
2022-09-23T07:07:16.636Z,5.58
2022-09-23T07:08:17.122Z,5.62
2022-09-23T07:09:16.576Z,5.78
2022-09-23T07:10:17.032Z,5.81
2022-09-23T07:11:16.445Z,5.72
2022-09-23T07:12:16.287Z,5.78
2022-09-23T07:13:16.706Z,5.91
2022-09-23T07:14:17.143Z,5.93
2022-09-23T07:15:16.611Z,5.98
2022-09-23T07:16:17.110Z,6.06
2022-09-23T07:17:16.847Z,6.09
2022-09-23T07:18:16.312Z,6.14
2022-09-23T07:19:16.758Z,6.19
2022-09-23T07:20:17.236Z,6.27
2022-09-23T07:21:16.699Z,6.44
2022-09-23T07:22:16.324Z,6.51
2022-09-23T07:23:16.768Z,6.44
2022-09-23T07:24:17.271Z,6.51
2022-09-23T07:25:16.736Z,6.52
2022-09-23T07:26:17.157Z,6.57
2022-09-23T07:27:16.621Z,6.63
2022-09-23T07:28:17.050Z,6.65
2022-09-23T07:29:16.474Z,6.71
2022-09-23T07:30:23.109Z,7.00
2022-09-23T07:31:21.870Z,7.20
2022-09-23T07:32:17.284Z,7.19
2022-09-23T07:33:27.841Z,7.23
2022-09-23T07:34:16.747Z,7.23
2022-09-23T07:35:17.253Z,7.30
2022-09-23T07:36:16.747Z,7.29
2022-09-23T07:37:17.207Z,7.38
2022-09-23T07:38:16.698Z,7.51
2022-09-23T07:39:17.120Z,7.71
2022-09-23T07:40:16.579Z,7.80
2022-09-23T07:41:17.140Z,7.92
2022-09-23T07:42:16.611Z,7.99
2022-09-23T07:43:17.081Z,8.03
2022-09-23T07:44:16.500Z,8.05
2022-09-23T07:45:16.965Z,8.12
2022-09-23T07:46:16.623Z,8.33
2022-09-23T07:47:16.317Z,8.43
2022-09-23T07:48:16.769Z,8.50
2022-09-23T07:49:17.264Z,8.58
2022-09-23T07:50:16.751Z,8.67
2022-09-23T07:51:17.194Z,8.65
2022-09-23T07:52:16.879Z,8.59
2022-09-23T07:53:16.305Z,8.61
2022-09-23T07:54:16.741Z,8.62
2022-09-23T07:55:20.793Z,8.69
2022-09-23T07:56:16.576Z,8.79
2022-09-23T07:57:16.996Z,8.80
2022-09-23T07:58:16.428Z,8.95
2022-09-23T07:59:16.889Z,9.03
2022-09-23T08:00:16.353Z,8.84
2022-09-23T08:01:16.899Z,8.84
2022-09-23T08:02:16.475Z,8.84
2022-09-23T08:03:17.143Z,8.92
2022-09-23T08:04:16.754Z,9.03
2022-09-23T08:05:17.242Z,9.05
2022-09-23T08:06:16.729Z,9.16
2022-09-23T08:07:17.191Z,9.19
2022-09-23T08:08:16.628Z,9.09
2022-09-23T08:09:17.063Z,9.29
2022-09-23T08:10:16.507Z,9.41
2022-09-23T08:11:16.948Z,9.44
2022-09-23T08:12:16.715Z,9.53
2022-09-23T08:13:17.149Z,9.58
2022-09-23T08:14:16.613Z,9.99
2022-09-23T08:15:17.036Z,10.27
2022-09-23T08:16:16.531Z,10.24
2022-09-23T08:17:17.098Z,10.19
2022-09-23T08:18:16.539Z,10.17
2022-09-23T08:19:17.007Z,10.48
2022-09-23T08:20:16.504Z,10.47
2022-09-23T08:21:16.989Z,10.54
2022-09-23T08:22:17.248Z,10.52
2022-09-23T08:23:16.744Z,10.67
2022-09-23T08:24:17.217Z,10.67
2022-09-23T08:25:19.106Z,10.58
2022-09-23T08:26:21.373Z,10.57
2022-09-23T08:27:16.914Z,10.61
2022-09-23T08:28:16.408Z,11.12
2022-09-23T08:29:16.855Z,11.23
2022-09-23T08:30:17.366Z,11.40
2022-09-23T08:31:17.082Z,11.34
2022-09-23T08:32:16.670Z,11.26
2022-09-23T08:33:21.084Z,11.16
2022-09-23T08:34:17.188Z,11.30
2022-09-23T08:35:16.706Z,11.55
2022-09-23T08:36:17.196Z,11.70
2022-09-23T08:37:16.652Z,11.70
2022-09-23T08:38:17.132Z,11.67
2022-09-23T08:39:16.550Z,11.61
2022-09-23T08:40:17.038Z,11.63
2022-09-23T08:41:16.575Z,11.54
2022-09-23T08:42:17.084Z,11.51
2022-09-23T08:43:16.552Z,11.53
2022-09-23T08:44:16.993Z,11.54
2022-09-23T08:45:16.428Z,11.61
2022-09-23T08:46:16.934Z,11.58
2022-09-23T08:47:16.479Z,11.57
2022-09-23T08:48:16.974Z,11.58
2022-09-23T08:49:16.461Z,11.55
2022-09-23T08:50:16.913Z,11.51
2022-09-23T08:51:16.406Z,11.50
2022-09-23T08:52:16.390Z,11.58
2022-09-23T08:53:16.854Z,11.75
2022-09-23T08:54:17.281Z,11.74
2022-09-23T08:55:16.699Z,11.86
2022-09-23T08:56:17.128Z,11.71
2022-09-23T08:57:16.604Z,11.67
2022-09-23T08:58:24.745Z,11.80
2022-09-23T08:59:16.838Z,11.77
2022-09-23T09:00:17.545Z,11.80
2022-09-23T09:01:17.065Z,11.77
2022-09-23T09:02:16.646Z,11.80
2022-09-23T09:03:17.240Z,11.81
2022-09-23T09:04:16.696Z,11.89
2022-09-23T09:05:17.160Z,12.01
2022-09-23T09:06:16.609Z,12.15
2022-09-23T09:07:35.536Z,12.18
2022-09-23T09:08:17.003Z,12.25
2022-09-23T09:09:16.452Z,12.25
2022-09-23T09:10:16.892Z,12.30
2022-09-23T09:11:16.368Z,12.30
2022-09-23T09:12:17.008Z,12.47
2022-09-23T09:13:16.440Z,12.51
2022-09-23T09:14:16.868Z,12.77
2022-09-23T09:15:16.323Z,12.89
2022-09-23T09:16:16.825Z,12.94
2022-09-23T09:17:17.270Z,12.87
2022-09-23T09:18:16.727Z,12.81
2022-09-23T09:19:17.188Z,12.68
2022-09-23T09:20:16.816Z,12.72
2022-09-23T09:21:17.327Z,12.68
2022-09-23T09:22:17.150Z,12.71
2022-09-23T09:23:16.599Z,12.77
2022-09-23T09:24:17.049Z,12.75
2022-09-23T09:25:16.474Z,12.88
2022-09-23T09:26:16.920Z,12.95
2022-09-23T09:27:16.355Z,13.11
2022-09-23T09:28:16.780Z,13.11
2022-09-23T09:29:34.041Z,13.11
2022-09-23T09:30:16.502Z,13.02
2022-09-23T09:31:16.984Z,13.16
2022-09-23T09:32:16.444Z,13.22
2022-09-23T09:33:16.904Z,13.49
2022-09-23T09:34:16.390Z,13.47
2022-09-23T09:35:16.877Z,13.47
2022-09-23T09:36:16.377Z,13.78
2022-09-23T09:37:16.858Z,13.87
2022-09-23T09:38:16.407Z,13.95
2022-09-23T09:39:16.868Z,13.81
2022-09-23T09:40:16.341Z,13.88
2022-09-23T09:41:17.010Z,14.13
2022-09-23T09:42:16.398Z,14.12
2022-09-23T09:43:16.848Z,14.05
2022-09-23T09:44:17.284Z,14.09
2022-09-23T09:45:19.461Z,14.09
2022-09-23T09:46:16.411Z,13.98
2022-09-23T09:47:17.006Z,14.04
2022-09-23T09:48:16.445Z,14.08
2022-09-23T09:49:16.889Z,14.23
2022-09-23T09:50:16.358Z,14.25
2022-09-23T09:51:16.816Z,14.29
2022-09-23T09:52:16.557Z,14.43
2022-09-23T09:53:16.935Z,14.37
2022-09-23T09:54:16.389Z,14.49
2022-09-23T09:55:16.846Z,14.52
2022-09-23T09:56:16.278Z,14.49
2022-09-23T09:57:16.700Z,14.66
2022-09-23T09:58:17.138Z,14.76
2022-09-23T09:59:16.607Z,14.64
2022-09-23T10:00:17.114Z,14.52
2022-09-23T10:01:16.628Z,14.55
2022-09-23T10:02:16.699Z,14.71
2022-09-23T10:03:17.181Z,14.67
2022-09-23T10:04:16.712Z,14.59
2022-09-23T10:05:17.217Z,14.44
2022-09-23T10:06:16.690Z,14.46
2022-09-23T10:07:17.148Z,14.47
2022-09-23T10:08:16.582Z,14.62
2022-09-23T10:09:17.024Z,14.49
2022-09-23T10:10:31.672Z,14.53
2022-09-23T10:11:16.271Z,14.56
2022-09-23T10:12:16.438Z,14.88
2022-09-23T10:13:16.870Z,14.91
2022-09-23T10:14:16.314Z,14.85
2022-09-23T10:15:16.770Z,14.91
2022-09-23T10:16:17.265Z,14.95
2022-09-23T10:17:16.815Z,15.01
2022-09-23T10:18:16.330Z,14.95
2022-09-23T10:19:16.794Z,14.91
2022-09-23T10:20:16.297Z,15.04
2022-09-23T10:21:17.048Z,14.98
2022-09-23T10:22:16.520Z,15.08
2022-09-23T10:23:16.986Z,15.35
2022-09-23T10:24:16.439Z,15.25
2022-09-23T10:25:16.862Z,15.28
2022-09-23T10:26:16.281Z,15.28
2022-09-23T10:27:16.729Z,15.29
2022-09-23T10:28:17.165Z,15.25
2022-09-23T10:29:16.639Z,15.33
2022-09-23T10:30:17.144Z,15.25
2022-09-23T10:31:16.741Z,15.23
2022-09-23T10:32:16.423Z,15.26
2022-09-23T10:33:16.880Z,15.29
2022-09-23T10:34:16.358Z,15.29
2022-09-23T10:35:16.822Z,15.33
2022-09-23T10:36:16.288Z,15.18
2022-09-23T10:37:16.734Z,15.12
2022-09-23T10:38:17.169Z,15.15
2022-09-23T10:39:16.608Z,15.16
2022-09-23T10:40:17.229Z,15.09
2022-09-23T10:41:16.907Z,15.04
2022-09-23T10:42:16.872Z,15.04
2022-09-23T10:43:16.307Z,14.98
2022-09-23T10:44:16.754Z,15.36
2022-09-23T10:45:17.258Z,15.50
2022-09-23T10:46:16.764Z,15.46
2022-09-23T10:47:16.351Z,15.46
2022-09-23T10:48:16.843Z,15.63
2022-09-23T10:49:16.307Z,15.59
2022-09-23T10:50:16.808Z,15.59
2022-09-23T10:51:16.266Z,15.53
2022-09-23T10:52:16.912Z,15.42
2022-09-23T10:53:16.332Z,15.39
2022-09-23T10:54:16.794Z,15.22
2022-09-23T10:55:17.245Z,15.33
2022-09-23T10:56:16.703Z,15.29
2022-09-23T10:57:17.148Z,15.54
2022-09-23T10:58:16.615Z,15.59
2022-09-23T10:59:17.086Z,15.56
2022-09-23T11:00:16.560Z,15.53
2022-09-23T11:01:17.119Z,15.52
2022-09-23T11:02:16.554Z,15.66
2022-09-23T11:03:17.030Z,15.73
2022-09-23T11:04:16.602Z,15.76
2022-09-23T11:05:17.443Z,15.97
2022-09-23T11:06:16.887Z,15.98
2022-09-23T11:07:16.315Z,15.88
2022-09-23T11:08:16.733Z,15.98
2022-09-23T11:09:17.159Z,16.01
2022-09-23T11:10:23.560Z,15.95
2022-09-23T11:11:16.990Z,16.17
2022-09-23T11:12:16.610Z,16.25
2022-09-23T11:13:17.057Z,16.29
2022-09-23T11:14:16.511Z,16.29
2022-09-23T11:15:17.013Z,16.32
2022-09-23T11:16:16.538Z,16.27
2022-09-23T11:17:17.078Z,16.33
2022-09-23T11:18:16.558Z,16.39
2022-09-23T11:19:17.021Z,16.25
2022-09-23T11:20:16.481Z,16.15
2022-09-23T11:21:16.954Z,16.14
2022-09-23T11:22:16.344Z,16.12
2022-09-23T11:23:16.781Z,15.97
2022-09-23T11:24:17.205Z,16.07
2022-09-23T11:25:16.641Z,16.19
2022-09-23T11:26:17.068Z,16.19
2022-09-23T11:27:16.527Z,16.25
2022-09-23T11:28:17.020Z,16.28
2022-09-23T11:29:16.474Z,16.27
2022-09-23T11:30:16.994Z,16.29
2022-09-23T11:31:16.469Z,16.18
2022-09-23T11:32:17.097Z,16.04
2022-09-23T11:33:16.563Z,16.07
2022-09-23T11:34:17.031Z,16.11
2022-09-23T11:35:16.536Z,16.11
2022-09-23T11:36:16.959Z,16.29
2022-09-23T11:37:16.407Z,16.42
2022-09-23T11:38:16.825Z,16.35
2022-09-23T11:39:16.262Z,16.38
2022-09-23T11:40:16.753Z,16.22
2022-09-23T11:41:16.317Z,16.36
2022-09-23T11:42:16.830Z,16.43
2022-09-23T11:43:16.319Z,16.39
2022-09-23T11:44:16.779Z,16.32
2022-09-23T11:45:17.275Z,16.32
2022-09-23T11:46:16.802Z,16.29
2022-09-23T11:47:16.345Z,16.32
2022-09-23T11:48:16.784Z,16.39
2022-09-23T11:49:17.247Z,16.31
2022-09-23T11:50:16.669Z,16.39
2022-09-23T11:51:17.132Z,16.47
2022-09-23T11:52:16.873Z,16.50
2022-09-23T11:53:16.288Z,16.46
2022-09-23T11:54:20.341Z,16.55
2022-09-23T11:55:20.690Z,16.55
2022-09-23T11:56:22.514Z,16.49
2022-09-23T11:57:16.847Z,16.50
2022-09-23T11:58:21.616Z,16.49
2022-09-23T11:59:16.508Z,16.32
2022-09-23T12:00:16.451Z,16.27
2022-09-23T12:01:17.465Z,16.22
2022-09-23T12:02:19.852Z,16.32
2022-09-23T12:03:17.361Z,16.32
2022-09-23T12:04:20.686Z,16.40
2022-09-23T12:05:17.090Z,16.40
2022-09-23T12:06:16.758Z,16.40
2022-09-23T12:07:17.180Z,16.47
2022-09-23T12:08:16.845Z,16.53
2022-09-23T12:09:16.271Z,16.53
2022-09-23T12:10:16.696Z,16.42
2022-09-23T12:11:17.152Z,16.43
2022-09-23T12:12:16.676Z,16.47
2022-09-23T12:13:17.181Z,16.45
2022-09-23T12:14:16.756Z,16.46
2022-09-23T12:15:17.249Z,16.49
2022-09-23T12:16:16.765Z,16.42
2022-09-23T12:17:16.439Z,16.29
2022-09-23T12:18:20.893Z,16.35
2022-09-23T12:19:16.751Z,16.25
2022-09-23T12:20:17.191Z,16.14
2022-09-23T12:21:32.967Z,16.18
2022-09-23T12:22:17.109Z,16.27
2022-09-23T12:23:16.531Z,16.39
2022-09-23T12:24:19.094Z,16.50
2022-09-23T12:25:16.751Z,16.63
2022-09-23T12:26:16.403Z,16.55
2022-09-23T12:27:16.874Z,16.52
2022-09-23T12:28:16.367Z,16.70
2022-09-23T12:29:16.907Z,16.53
2022-09-23T12:30:16.417Z,16.60
2022-09-23T12:31:16.937Z,16.67
2022-09-23T12:32:16.318Z,16.83
2022-09-23T12:33:16.810Z,16.90
2022-09-23T12:34:17.241Z,16.88
2022-09-23T12:35:16.667Z,16.86
2022-09-23T12:36:17.082Z,16.83
2022-09-23T12:37:16.539Z,16.87
2022-09-23T12:38:16.965Z,16.98
2022-09-23T12:39:16.408Z,16.97
2022-09-23T12:40:16.904Z,17.00
2022-09-23T12:41:16.434Z,17.14
2022-09-23T12:42:16.980Z,17.21
2022-09-23T12:43:16.505Z,17.21
2022-09-23T12:44:16.970Z,17.17
2022-09-23T12:45:16.424Z,17.25
2022-09-23T12:46:16.929Z,17.15
2022-09-23T12:47:16.561Z,17.14
2022-09-23T12:48:17.034Z,17.15
2022-09-23T12:49:16.480Z,17.14
2022-09-23T12:50:18.436Z,17.15
2022-09-23T12:51:17.100Z,17.08
2022-09-23T12:52:16.926Z,17.00
2022-09-23T12:53:16.372Z,17.05
2022-09-23T12:54:16.789Z,17.03
2022-09-23T12:55:17.242Z,17.07
2022-09-23T12:56:16.697Z,17.25
2022-09-23T12:57:17.182Z,17.05
2022-09-23T12:58:16.651Z,17.05
2022-09-23T12:59:17.115Z,17.21
2022-09-23T13:00:16.569Z,17.22
2022-09-23T13:01:17.117Z,17.19
2022-09-23T13:02:16.741Z,17.15
2022-09-23T13:03:16.483Z,17.05
2022-09-23T13:04:16.940Z,16.95
2022-09-23T13:05:16.382Z,17.04
2022-09-23T13:06:16.842Z,17.29
2022-09-23T13:07:16.256Z,17.31
2022-09-23T13:08:16.719Z,17.25